createdAt,value
2023-04-13T00:00:47.158Z,7.95
2023-04-13T00:01:47.182Z,7.95
2023-04-13T00:02:47.290Z,7.96
2023-04-13T00:03:47.163Z,7.96
2023-04-13T00:04:47.117Z,7.99
2023-04-13T00:05:47.192Z,7.95
2023-04-13T00:06:47.087Z,7.95
2023-04-13T00:07:47.073Z,7.95
2023-04-13T00:08:47.065Z,7.94
2023-04-13T00:09:47.088Z,7.94
2023-04-13T00:10:47.055Z,7.91
2023-04-13T00:11:47.025Z,7.91
2023-04-13T00:12:47.024Z,7.89
2023-04-13T00:13:47.029Z,7.89
2023-04-13T00:14:47.000Z,7.88
2023-04-13T00:15:46.987Z,7.86
2023-04-13T00:16:46.995Z,7.88
2023-04-13T00:17:47.039Z,7.85
2023-04-13T00:18:46.964Z,7.86
2023-04-13T00:19:46.941Z,7.85
2023-04-13T00:20:46.959Z,7.84
2023-04-13T00:21:46.917Z,7.82
2023-04-13T00:22:46.915Z,7.79
2023-04-13T00:23:47.162Z,7.76
2023-04-13T00:24:46.907Z,7.77
2023-04-13T00:25:46.874Z,7.76
2023-04-13T00:26:46.881Z,7.74
2023-04-13T00:27:46.913Z,7.73
2023-04-13T00:28:46.868Z,7.74
2023-04-13T00:29:46.833Z,7.76
2023-04-13T00:30:46.929Z,7.77
2023-04-13T00:31:46.811Z,7.77
2023-04-13T00:32:46.864Z,7.79
2023-04-13T00:33:46.793Z,7.77
2023-04-13T00:34:46.791Z,7.77
2023-04-13T00:35:46.768Z,7.76
2023-04-13T00:36:46.761Z,7.76
2023-04-13T00:37:46.747Z,7.77
2023-04-13T00:38:46.745Z,7.79
2023-04-13T00:39:46.742Z,7.77
2023-04-13T00:40:46.754Z,7.81
2023-04-13T00:41:46.706Z,7.79
2023-04-13T00:42:46.705Z,7.79
2023-04-13T00:43:46.691Z,7.79
2023-04-13T00:44:46.690Z,7.77
2023-04-13T00:45:46.664Z,7.81
2023-04-13T00:46:46.732Z,7.77
2023-04-13T00:47:46.995Z,7.81
2023-04-13T00:48:46.641Z,7.79
2023-04-13T00:49:46.860Z,7.81
2023-04-13T00:50:46.673Z,7.79
2023-04-13T00:51:46.612Z,7.81
2023-04-13T00:52:46.606Z,7.82
2023-04-13T00:53:46.574Z,7.79
2023-04-13T00:54:46.600Z,7.79
2023-04-13T00:55:46.555Z,7.79
2023-04-13T00:56:46.563Z,7.79
2023-04-13T00:57:46.575Z,7.79
2023-04-13T00:58:46.538Z,7.77
2023-04-13T00:59:46.516Z,7.76
2023-04-13T01:00:46.511Z,7.77
2023-04-13T01:01:46.717Z,7.77
2023-04-13T01:02:46.549Z,7.76
2023-04-13T01:03:46.480Z,7.74
2023-04-13T01:04:46.487Z,7.73
2023-04-13T01:05:46.465Z,7.73
2023-04-13T01:06:46.443Z,7.71
2023-04-13T01:07:46.428Z,7.70
2023-04-13T01:08:46.446Z,7.70
2023-04-13T01:09:46.407Z,7.69
2023-04-13T01:10:46.435Z,7.69
2023-04-13T01:11:46.402Z,7.67
2023-04-13T01:12:46.397Z,7.69
2023-04-13T01:13:46.364Z,7.70
2023-04-13T01:14:46.363Z,7.69
2023-04-13T01:15:46.461Z,7.69
2023-04-13T01:16:46.351Z,7.69
2023-04-13T01:17:46.386Z,7.67
2023-04-13T01:18:46.339Z,7.66
2023-04-13T01:19:46.318Z,7.66
2023-04-13T01:20:46.333Z,7.63
2023-04-13T01:21:46.372Z,7.60
2023-04-13T01:22:46.281Z,7.63
2023-04-13T01:23:46.260Z,7.62
2023-04-13T01:24:46.262Z,7.62
2023-04-13T01:25:46.263Z,7.60
2023-04-13T01:26:46.232Z,7.60
2023-04-13T01:27:46.218Z,7.57
2023-04-13T01:28:46.264Z,7.55
2023-04-13T01:29:46.225Z,7.52
2023-04-13T01:30:46.191Z,7.51
2023-04-13T01:31:46.256Z,7.50
2023-04-13T01:32:46.224Z,7.47
2023-04-13T01:33:46.179Z,7.45
2023-04-13T01:34:46.180Z,7.42
2023-04-13T01:35:46.146Z,7.42
2023-04-13T01:36:46.124Z,7.39
2023-04-13T01:37:46.117Z,7.41
2023-04-13T01:38:46.116Z,7.39
2023-04-13T01:39:47.295Z,7.36
2023-04-13T01:40:46.087Z,7.32
2023-04-13T01:41:46.070Z,7.33
2023-04-13T01:42:46.076Z,7.33
2023-04-13T01:43:46.064Z,7.30
2023-04-13T01:44:46.060Z,7.30
2023-04-13T01:45:46.048Z,7.29
2023-04-13T01:46:46.096Z,7.26
2023-04-13T01:47:46.060Z,7.26
2023-04-13T01:48:46.029Z,7.24
2023-04-13T01:49:45.988Z,7.23
2023-04-13T01:50:46.001Z,7.19
2023-04-13T01:51:45.976Z,7.15
2023-04-13T01:52:45.957Z,7.14
2023-04-13T01:53:45.978Z,7.14
2023-04-13T01:54:45.942Z,7.14
2023-04-13T01:55:45.932Z,7.11
2023-04-13T01:56:45.936Z,7.11
2023-04-13T01:57:45.903Z,7.09
2023-04-13T01:58:45.920Z,7.09
2023-04-13T01:59:45.922Z,7.09
2023-04-13T02:00:45.939Z,7.07
2023-04-13T02:01:45.878Z,7.05
2023-04-13T02:02:46.167Z,7.07
2023-04-13T02:03:45.963Z,7.05
2023-04-13T02:04:45.862Z,7.08
2023-04-13T02:05:45.830Z,7.07
2023-04-13T02:06:45.818Z,7.08
2023-04-13T02:07:45.801Z,7.08
2023-04-13T02:08:45.820Z,7.09
2023-04-13T02:09:45.769Z,7.12
2023-04-13T02:10:45.786Z,7.14
2023-04-13T02:11:45.919Z,7.15
2023-04-13T02:12:45.777Z,7.14
2023-04-13T02:13:45.742Z,7.15
2023-04-13T02:14:45.723Z,7.14
2023-04-13T02:15:45.800Z,7.16
2023-04-13T02:16:45.790Z,7.15
2023-04-13T02:17:45.755Z,7.14
2023-04-13T02:18:45.701Z,7.15
2023-04-13T02:19:45.667Z,7.18
2023-04-13T02:20:45.698Z,7.15
2023-04-13T02:21:45.701Z,7.16
2023-04-13T02:22:45.653Z,7.19
2023-04-13T02:23:45.622Z,7.16
2023-04-13T02:24:45.622Z,7.16
2023-04-13T02:25:47.326Z,7.19
2023-04-13T02:26:45.615Z,7.18
2023-04-13T02:27:45.579Z,7.19
2023-04-13T02:28:45.583Z,7.19
2023-04-13T02:29:45.596Z,7.18
2023-04-13T02:30:45.571Z,7.23
2023-04-13T02:31:45.616Z,7.23
2023-04-13T02:32:45.555Z,7.23
2023-04-13T02:33:45.533Z,7.21
2023-04-13T02:34:45.528Z,7.23
2023-04-13T02:35:45.514Z,7.24
2023-04-13T02:36:45.545Z,7.26
2023-04-13T02:37:45.481Z,7.24
2023-04-13T02:38:45.472Z,7.24
2023-04-13T02:39:45.468Z,7.24
2023-04-13T02:40:45.463Z,7.26
2023-04-13T02:41:45.436Z,7.26
2023-04-13T02:42:45.457Z,7.24
2023-04-13T02:43:45.437Z,7.26
2023-04-13T02:44:45.419Z,7.26
2023-04-13T02:45:45.435Z,7.24
2023-04-13T02:46:45.394Z,7.24
2023-04-13T02:47:45.435Z,7.27
2023-04-13T02:48:45.375Z,7.23
2023-04-13T02:49:45.360Z,7.23
2023-04-13T02:50:45.357Z,7.23
2023-04-13T02:51:45.352Z,7.23
2023-04-13T02:52:45.338Z,7.21
2023-04-13T02:53:45.304Z,7.23
2023-04-13T02:54:45.302Z,7.19
2023-04-13T02:55:45.286Z,7.19
2023-04-13T02:56:45.299Z,7.19
2023-04-13T02:57:45.288Z,7.18
2023-04-13T02:58:45.270Z,7.16
2023-04-13T02:59:45.256Z,7.15
2023-04-13T03:00:45.247Z,7.12
2023-04-13T03:01:45.378Z,7.11
2023-04-13T03:02:45.296Z,7.11
2023-04-13T03:03:45.211Z,7.09
2023-04-13T03:04:45.228Z,7.09
2023-04-13T03:05:45.206Z,7.08
2023-04-13T03:06:45.185Z,7.05
2023-04-13T03:07:45.189Z,7.04
2023-04-13T03:08:45.159Z,7.04
2023-04-13T03:09:45.155Z,7.01
2023-04-13T03:10:45.138Z,7.00
2023-04-13T03:11:45.113Z,7.01
2023-04-13T03:12:45.115Z,7.00
2023-04-13T03:13:45.102Z,6.99
2023-04-13T03:14:45.095Z,6.97
2023-04-13T03:15:45.083Z,6.94
2023-04-13T03:16:45.135Z,6.93
2023-04-13T03:17:45.091Z,6.93
2023-04-13T03:18:45.048Z,6.91
2023-04-13T03:19:45.034Z,6.93
2023-04-13T03:20:45.135Z,6.91
2023-04-13T03:21:45.026Z,6.89
2023-04-13T03:22:45.022Z,6.89
2023-04-13T03:23:45.006Z,6.87
2023-04-13T03:24:44.987Z,6.89
2023-04-13T03:25:44.970Z,6.87
2023-04-13T03:26:44.967Z,6.86
2023-04-13T03:27:44.961Z,6.86
2023-04-13T03:28:44.957Z,6.83
2023-04-13T03:29:44.932Z,6.87
2023-04-13T03:30:44.929Z,6.86
2023-04-13T03:31:44.996Z,6.86
2023-04-13T03:32:44.963Z,6.87
2023-04-13T03:33:44.876Z,6.87
2023-04-13T03:34:44.907Z,6.89
2023-04-13T03:35:44.875Z,6.89
2023-04-13T03:36:44.856Z,6.87
2023-04-13T03:37:44.991Z,6.89
2023-04-13T03:38:44.844Z,6.89
2023-04-13T03:39:44.844Z,6.87
2023-04-13T03:40:44.828Z,6.89
2023-04-13T03:41:44.805Z,6.87
2023-04-13T03:42:44.801Z,6.87
2023-04-13T03:43:44.778Z,6.86
2023-04-13T03:44:45.049Z,6.83
2023-04-13T03:45:44.815Z,6.86
2023-04-13T03:46:44.908Z,6.83
2023-04-13T03:47:44.806Z,6.86
2023-04-13T03:48:44.751Z,6.86
2023-04-13T03:49:44.744Z,6.83
2023-04-13T03:50:44.739Z,6.86
2023-04-13T03:51:44.686Z,6.86
2023-04-13T03:52:44.704Z,6.86
2023-04-13T03:53:44.671Z,6.86
2023-04-13T03:54:44.725Z,6.83
2023-04-13T03:55:44.650Z,6.81
2023-04-13T03:56:45.151Z,6.83
2023-04-13T03:57:44.639Z,6.86
2023-04-13T03:58:44.629Z,6.86
2023-04-13T03:59:44.603Z,6.83
2023-04-13T04:00:44.637Z,6.86
2023-04-13T04:01:44.679Z,6.87
2023-04-13T04:02:44.739Z,6.87
2023-04-13T04:03:44.703Z,6.89
2023-04-13T04:04:44.615Z,6.89
2023-04-13T04:05:44.678Z,6.90
2023-04-13T04:06:44.553Z,6.91
2023-04-13T04:07:44.524Z,6.93
2023-04-13T04:08:44.520Z,6.94
2023-04-13T04:09:44.510Z,6.97
2023-04-13T04:10:44.488Z,6.99
2023-04-13T04:11:44.519Z,6.99
2023-04-13T04:12:44.489Z,6.99
2023-04-13T04:13:44.457Z,7.01
2023-04-13T04:14:44.457Z,7.00
2023-04-13T04:15:44.447Z,7.04
2023-04-13T04:16:44.510Z,7.04
2023-04-13T04:17:44.431Z,7.05
2023-04-13T04:18:44.405Z,7.08
2023-04-13T04:19:44.396Z,7.09
2023-04-13T04:20:44.383Z,7.11
2023-04-13T04:21:44.409Z,7.11
2023-04-13T04:22:44.358Z,7.12
2023-04-13T04:23:44.355Z,7.14
2023-04-13T04:24:44.337Z,7.14
2023-04-13T04:25:44.340Z,7.15
2023-04-13T04:26:44.331Z,7.16
2023-04-13T04:27:44.345Z,7.19
2023-04-13T04:28:44.329Z,7.21
2023-04-13T04:29:44.301Z,7.24
2023-04-13T04:30:44.293Z,7.26
2023-04-13T04:31:44.346Z,7.27
2023-04-13T04:32:44.282Z,7.29
2023-04-13T04:33:44.253Z,7.30
2023-04-13T04:34:44.260Z,7.30
2023-04-13T04:35:44.244Z,7.32
2023-04-13T04:36:44.477Z,7.32
2023-04-13T04:37:44.728Z,7.32
2023-04-13T04:38:44.388Z,7.33
2023-04-13T04:39:44.294Z,7.34
2023-04-13T04:40:44.303Z,7.34
2023-04-13T04:41:44.479Z,7.37
2023-04-13T04:42:44.442Z,7.37
2023-04-13T04:43:44.147Z,7.39
2023-04-13T04:44:44.141Z,7.39
2023-04-13T04:45:44.462Z,7.41
2023-04-13T04:46:44.115Z,7.41
2023-04-13T04:47:44.158Z,7.41
2023-04-13T04:48:44.206Z,7.42
2023-04-13T04:49:44.088Z,7.41
2023-04-13T04:50:44.070Z,7.41
2023-04-13T04:51:44.355Z,7.42
2023-04-13T04:52:44.078Z,7.42
2023-04-13T04:53:44.038Z,7.42
2023-04-13T04:54:44.025Z,7.44
2023-04-13T04:55:44.026Z,7.45
2023-04-13T04:56:44.098Z,7.44
2023-04-13T04:57:44.019Z,7.45
2023-04-13T04:58:44.008Z,7.45
2023-04-13T04:59:44.695Z,7.48
2023-04-13T05:00:44.016Z,7.47
2023-04-13T05:01:44.147Z,7.48
2023-04-13T05:02:44.045Z,7.48
2023-04-13T05:03:44.660Z,7.48
2023-04-13T05:04:43.945Z,7.48
2023-04-13T05:05:44.605Z,7.51
2023-04-13T05:06:45.001Z,7.50
2023-04-13T05:07:44.218Z,7.50
2023-04-13T05:08:43.918Z,7.50
2023-04-13T05:09:44.598Z,7.51
2023-04-13T05:10:43.873Z,7.52
2023-04-13T05:11:44.581Z,7.55
2023-04-13T05:12:43.882Z,7.57
2023-04-13T05:13:43.868Z,7.57
2023-04-13T05:14:43.867Z,7.58
2023-04-13T05:15:43.968Z,7.58
2023-04-13T05:16:43.807Z,7.57
2023-04-13T05:17:43.832Z,7.60
2023-04-13T05:18:43.800Z,7.60
2023-04-13T05:19:43.796Z,7.60
2023-04-13T05:20:43.780Z,7.63
2023-04-13T05:21:44.072Z,7.63
2023-04-13T05:22:43.751Z,7.62
2023-04-13T05:23:43.761Z,7.62
2023-04-13T05:24:43.740Z,7.63
2023-04-13T05:25:44.534Z,7.66
2023-04-13T05:26:43.716Z,7.63
2023-04-13T05:27:43.693Z,7.66
2023-04-13T05:28:43.683Z,7.66
2023-04-13T05:29:45.624Z,7.66
2023-04-13T05:30:43.660Z,7.66
2023-04-13T05:31:44.387Z,7.69
2023-04-13T05:32:43.892Z,7.67
2023-04-13T05:33:45.476Z,7.71
2023-04-13T05:34:43.614Z,7.71
2023-04-13T05:35:44.329Z,7.71
2023-04-13T05:36:43.613Z,7.71
2023-04-13T05:37:44.654Z,7.73
2023-04-13T05:38:44.935Z,7.73
2023-04-13T05:39:44.895Z,7.76
2023-04-13T05:40:43.572Z,7.74
2023-04-13T05:41:44.261Z,7.76
2023-04-13T05:42:43.581Z,7.77
2023-04-13T05:43:44.121Z,7.76
2023-04-13T05:44:43.527Z,7.76
2023-04-13T05:45:43.627Z,7.77
2023-04-13T05:46:43.484Z,7.79
2023-04-13T05:47:43.547Z,7.77
2023-04-13T05:48:43.612Z,7.79
2023-04-13T05:49:43.482Z,7.82
2023-04-13T05:50:43.444Z,7.82
2023-04-13T05:51:43.580Z,7.82
2023-04-13T05:52:43.437Z,7.84
2023-04-13T05:53:43.423Z,7.84
2023-04-13T05:54:43.441Z,7.84
2023-04-13T05:55:43.386Z,7.86
2023-04-13T05:56:44.150Z,7.86
2023-04-13T05:57:43.376Z,7.88
2023-04-13T05:58:43.362Z,7.91
2023-04-13T05:59:43.346Z,7.92
2023-04-13T06:00:43.347Z,7.92
2023-04-13T06:01:43.361Z,7.92
2023-04-13T06:02:43.462Z,7.94
2023-04-13T06:03:43.464Z,7.95
2023-04-13T06:04:44.058Z,7.96
2023-04-13T06:05:43.330Z,7.95
2023-04-13T06:06:43.292Z,8.00
2023-04-13T06:07:43.270Z,8.00
2023-04-13T06:08:43.241Z,8.02
2023-04-13T06:09:43.255Z,8.03
2023-04-13T06:10:43.238Z,8.03
2023-04-13T06:11:43.227Z,8.04
2023-04-13T06:12:43.492Z,8.07
2023-04-13T06:13:43.212Z,8.07
2023-04-13T06:14:43.205Z,8.10
2023-04-13T06:15:43.179Z,8.13
2023-04-13T06:16:43.324Z,8.13
2023-04-13T06:17:43.231Z,8.18
2023-04-13T06:18:43.541Z,8.18
2023-04-13T06:19:43.153Z,8.20
2023-04-13T06:20:43.260Z,8.21
2023-04-13T06:21:43.120Z,8.22
2023-04-13T06:22:44.110Z,8.20
2023-04-13T06:23:43.121Z,8.18
2023-04-13T06:24:44.063Z,8.17
2023-04-13T06:25:43.202Z,8.17
2023-04-13T06:26:43.296Z,8.13
2023-04-13T06:27:43.074Z,8.13
2023-04-13T06:28:43.889Z,8.14
2023-04-13T06:29:43.870Z,8.14
2023-04-13T06:30:43.230Z,8.14
2023-04-13T06:31:43.024Z,8.17
2023-04-13T06:32:43.150Z,8.18
2023-04-13T06:33:42.992Z,8.20
2023-04-13T06:34:42.984Z,8.24
2023-04-13T06:35:42.962Z,8.29
2023-04-13T06:36:42.959Z,8.31
2023-04-13T06:37:42.940Z,8.37
2023-04-13T06:38:42.930Z,8.39
2023-04-13T06:39:42.945Z,8.42
2023-04-13T06:40:42.923Z,8.45
2023-04-13T06:41:42.894Z,8.47
2023-04-13T06:42:44.120Z,8.50
2023-04-13T06:43:42.877Z,8.54
2023-04-13T06:44:42.964Z,8.55
2023-04-13T06:45:42.870Z,8.58
2023-04-13T06:46:42.890Z,8.60
2023-04-13T06:47:42.865Z,8.61
2023-04-13T06:48:42.847Z,8.64
2023-04-13T06:49:42.826Z,8.65
2023-04-13T06:50:42.795Z,8.70
2023-04-13T06:51:42.804Z,8.71
2023-04-13T06:52:42.787Z,8.73
2023-04-13T06:53:44.724Z,8.73
2023-04-13T06:54:42.766Z,8.75
2023-04-13T06:55:42.749Z,8.76
2023-04-13T06:56:42.737Z,8.79
2023-04-13T06:57:42.734Z,8.80
2023-04-13T06:58:42.712Z,8.82
2023-04-13T06:59:42.719Z,8.85
2023-04-13T07:00:42.730Z,8.88
2023-04-13T07:01:42.809Z,8.91
2023-04-13T07:02:42.802Z,8.89
2023-04-13T07:03:42.820Z,8.88
2023-04-13T07:04:42.820Z,8.88
2023-04-13T07:05:42.660Z,8.85
2023-04-13T07:06:42.632Z,8.89
2023-04-13T07:07:42.632Z,8.94
2023-04-13T07:08:43.425Z,8.91
2023-04-13T07:09:42.618Z,8.89
2023-04-13T07:10:42.607Z,8.89
2023-04-13T07:11:42.578Z,8.91
2023-04-13T07:12:42.571Z,8.91
2023-04-13T07:13:42.570Z,8.93
2023-04-13T07:14:42.561Z,8.96
2023-04-13T07:15:42.591Z,8.96
2023-04-13T07:16:42.539Z,8.97
2023-04-13T07:17:42.550Z,8.97
2023-04-13T07:18:42.500Z,9.00
2023-04-13T07:19:43.286Z,9.01
2023-04-13T07:20:42.494Z,9.03
2023-04-13T07:21:42.504Z,9.10
2023-04-13T07:22:42.467Z,9.10
2023-04-13T07:23:42.466Z,9.12
2023-04-13T07:24:42.515Z,9.12
2023-04-13T07:25:42.448Z,9.12
2023-04-13T07:26:43.084Z,9.16
2023-04-13T07:27:42.428Z,9.19
2023-04-13T07:28:42.408Z,9.20
2023-04-13T07:29:43.343Z,9.20
2023-04-13T07:30:42.401Z,9.16
2023-04-13T07:31:43.967Z,9.17
2023-04-13T07:32:42.406Z,9.23
2023-04-13T07:33:43.312Z,9.26
2023-04-13T07:34:42.363Z,9.31
2023-04-13T07:35:44.061Z,9.34
2023-04-13T07:36:42.349Z,9.35
2023-04-13T07:37:44.581Z,9.35
2023-04-13T07:38:42.296Z,9.38
2023-04-13T07:39:43.016Z,9.40
2023-04-13T07:40:42.643Z,9.40
2023-04-13T07:41:43.286Z,9.40
2023-04-13T07:42:42.282Z,9.44
2023-04-13T07:43:42.290Z,9.45
2023-04-13T07:44:42.240Z,9.50
2023-04-13T07:45:42.304Z,9.52
2023-04-13T07:46:42.263Z,9.53
2023-04-13T07:47:42.240Z,9.56
2023-04-13T07:48:44.430Z,9.60
2023-04-13T07:49:42.171Z,9.65
2023-04-13T07:50:42.186Z,9.70
2023-04-13T07:51:42.153Z,9.71
2023-04-13T07:52:42.180Z,9.73
2023-04-13T07:53:42.162Z,9.65
2023-04-13T07:54:42.126Z,9.62
2023-04-13T07:55:43.256Z,9.60
2023-04-13T07:56:42.095Z,9.62
2023-04-13T07:57:42.113Z,9.60
2023-04-13T07:58:42.087Z,9.60
2023-04-13T07:59:42.083Z,9.65
2023-04-13T08:00:42.051Z,9.70
2023-04-13T08:01:42.082Z,9.77
2023-04-13T08:02:42.509Z,9.80
2023-04-13T08:03:42.126Z,9.80
2023-04-13T08:04:42.064Z,9.85
2023-04-13T08:05:43.022Z,9.86
2023-04-13T08:06:42.006Z,9.88
2023-04-13T08:07:42.078Z,9.88
2023-04-13T08:08:42.176Z,9.88
2023-04-13T08:09:41.972Z,9.86
2023-04-13T08:10:41.955Z,9.86
2023-04-13T08:11:42.735Z,9.78
2023-04-13T08:12:43.523Z,9.80
2023-04-13T08:13:41.957Z,9.80
2023-04-13T08:14:41.903Z,9.80
2023-04-13T08:15:41.919Z,9.86
2023-04-13T08:16:41.966Z,9.89
2023-04-13T08:17:42.034Z,9.92
2023-04-13T08:18:41.880Z,9.95
2023-04-13T08:19:41.860Z,9.99
2023-04-13T08:20:41.858Z,10.06
2023-04-13T08:21:41.859Z,10.06
2023-04-13T08:22:42.308Z,10.04
2023-04-13T08:23:42.137Z,10.01
2023-04-13T08:24:41.905Z,10.04
2023-04-13T08:25:42.088Z,10.04
2023-04-13T08:26:42.109Z,10.07
2023-04-13T08:27:41.787Z,10.11
2023-04-13T08:28:41.763Z,10.13
2023-04-13T08:29:41.750Z,10.16
2023-04-13T08:30:42.007Z,10.20
2023-04-13T08:31:41.805Z,10.24
2023-04-13T08:32:41.767Z,10.24
2023-04-13T08:33:41.715Z,10.26
2023-04-13T08:34:41.707Z,10.25
2023-04-13T08:35:41.726Z,10.26
2023-04-13T08:36:42.005Z,10.24
2023-04-13T08:37:41.694Z,10.24
2023-04-13T08:38:41.672Z,10.25
2023-04-13T08:39:41.686Z,10.22
2023-04-13T08:40:41.658Z,10.20
2023-04-13T08:41:42.029Z,10.16
2023-04-13T08:42:41.663Z,10.10
2023-04-13T08:43:41.782Z,10.07
2023-04-13T08:44:41.838Z,10.06
2023-04-13T08:45:41.631Z,10.06
2023-04-13T08:46:41.758Z,10.04
2023-04-13T08:47:41.634Z,10.04
2023-04-13T08:48:52.825Z,10.02
2023-04-13T08:49:42.788Z,10.04
2023-04-13T08:50:42.250Z,10.01
2023-04-13T08:51:41.560Z,9.99
2023-04-13T08:52:41.686Z,10.02
2023-04-13T08:53:41.521Z,10.06
2023-04-13T08:54:41.697Z,10.09
2023-04-13T08:55:41.503Z,10.09
2023-04-13T08:56:45.909Z,10.10
2023-04-13T08:57:42.471Z,10.09
2023-04-13T08:58:41.511Z,10.13
2023-04-13T08:59:41.978Z,10.14
2023-04-13T09:00:41.630Z,10.18
2023-04-13T09:01:41.585Z,10.20
2023-04-13T09:02:52.412Z,10.18
2023-04-13T09:03:42.507Z,10.17
2023-04-13T09:04:41.569Z,10.17
2023-04-13T09:05:41.469Z,10.18
2023-04-13T09:06:41.631Z,10.20
2023-04-13T09:07:41.348Z,10.24
2023-04-13T09:08:41.343Z,10.28
2023-04-13T09:09:41.385Z,10.31
2023-04-13T09:10:42.224Z,10.32
2023-04-13T09:11:41.294Z,10.36
2023-04-13T09:12:41.310Z,10.38
2023-04-13T09:13:41.283Z,10.39
2023-04-13T09:14:41.305Z,10.38
2023-04-13T09:15:41.265Z,10.46
2023-04-13T09:16:41.334Z,10.49
2023-04-13T09:17:41.295Z,10.54
2023-04-13T09:18:41.280Z,10.60
2023-04-13T09:19:41.245Z,10.66
2023-04-13T09:20:41.218Z,10.73
2023-04-13T09:21:41.536Z,10.78
2023-04-13T09:22:41.190Z,10.87
2023-04-13T09:23:42.740Z,10.94
2023-04-13T09:24:41.169Z,11.03
2023-04-13T09:25:41.191Z,11.03
2023-04-13T09:26:41.166Z,11.08
2023-04-13T09:27:41.147Z,11.11
2023-04-13T09:28:41.131Z,11.16
2023-04-13T09:29:41.109Z,11.19
2023-04-13T09:30:41.190Z,11.19
2023-04-13T09:31:42.907Z,11.20
2023-04-13T09:32:41.108Z,11.16
2023-04-13T09:33:41.071Z,11.13
2023-04-13T09:34:41.084Z,11.08
2023-04-13T09:35:41.068Z,11.06
2023-04-13T09:36:52.956Z,11.06
2023-04-13T09:37:43.803Z,11.08
2023-04-13T09:38:41.076Z,11.08
2023-04-13T09:39:41.001Z,11.03
2023-04-13T09:40:41.012Z,11.01
2023-04-13T09:41:41.253Z,10.95
2023-04-13T09:42:40.993Z,10.91
2023-04-13T09:43:40.973Z,10.88
2023-04-13T09:44:41.076Z,10.87
2023-04-13T09:45:41.862Z,10.81
2023-04-13T09:46:41.077Z,10.84
2023-04-13T09:47:41.019Z,10.81
2023-04-13T09:48:40.933Z,10.80
2023-04-13T09:49:40.896Z,10.83
2023-04-13T09:50:41.664Z,10.83
2023-04-13T09:51:40.891Z,10.84
2023-04-13T09:52:40.897Z,10.83
2023-04-13T09:53:40.867Z,10.81
2023-04-13T09:54:40.856Z,10.83
2023-04-13T09:55:41.161Z,10.80
2023-04-13T09:56:40.844Z,10.80
2023-04-13T09:57:40.879Z,10.80
2023-04-13T09:58:40.846Z,10.81
2023-04-13T09:59:41.841Z,10.84
2023-04-13T10:00:41.190Z,10.88
2023-04-13T10:01:42.956Z,10.90
2023-04-13T10:02:41.364Z,10.88
2023-04-13T10:03:43.970Z,10.86
2023-04-13T10:04:40.908Z,10.87
2023-04-13T10:05:55.137Z,10.86
2023-04-13T10:06:41.776Z,10.87
2023-04-13T10:07:40.994Z,10.87
2023-04-13T10:08:41.035Z,10.84
2023-04-13T10:09:41.197Z,10.80
2023-04-13T10:10:40.800Z,10.80
2023-04-13T10:11:40.659Z,10.83
2023-04-13T10:12:41.357Z,10.84
2023-04-13T10:13:42.744Z,10.84
2023-04-13T10:14:40.726Z,10.87
2023-04-13T10:15:40.939Z,10.91
2023-04-13T10:16:40.686Z,10.94
2023-04-13T10:17:40.741Z,10.98
2023-04-13T10:18:40.885Z,11.01
2023-04-13T10:19:40.606Z,10.98
2023-04-13T10:20:40.579Z,11.02
2023-04-13T10:21:40.632Z,10.99
2023-04-13T10:22:40.792Z,10.99
2023-04-13T10:23:40.756Z,11.01
2023-04-13T10:24:40.700Z,10.95
2023-04-13T10:25:40.524Z,11.01
2023-04-13T10:26:40.777Z,11.02
2023-04-13T10:27:42.582Z,11.08
2023-04-13T10:28:40.641Z,11.12
2023-04-13T10:29:40.775Z,11.11
2023-04-13T10:30:41.009Z,11.05
2023-04-13T10:31:40.570Z,11.06
2023-04-13T10:32:40.944Z,11.06
2023-04-13T10:33:42.222Z,11.05
2023-04-13T10:34:40.733Z,11.05
2023-04-13T10:35:43.472Z,10.98
2023-04-13T10:36:40.735Z,10.95
2023-04-13T10:37:40.662Z,10.94
2023-04-13T10:38:40.539Z,10.93
2023-04-13T10:39:40.375Z,10.90
2023-04-13T10:40:40.360Z,10.88
2023-04-13T10:41:40.360Z,10.87
2023-04-13T10:42:51.289Z,10.90
2023-04-13T10:43:42.887Z,10.93
2023-04-13T10:44:40.554Z,10.93
2023-04-13T10:45:40.484Z,10.94
2023-04-13T10:46:41.285Z,10.93
2023-04-13T10:47:40.356Z,10.93
2023-04-13T10:48:40.270Z,10.95
2023-04-13T10:49:40.263Z,10.99
2023-04-13T10:50:40.409Z,11.05
2023-04-13T10:51:40.909Z,11.08
2023-04-13T10:52:40.225Z,11.13
2023-04-13T10:53:40.234Z,11.13
2023-04-13T10:54:40.221Z,11.13
2023-04-13T10:55:40.199Z,11.17
2023-04-13T10:56:40.231Z,11.19
2023-04-13T10:57:40.180Z,11.21
2023-04-13T10:58:40.249Z,11.24
2023-04-13T10:59:55.553Z,11.26
2023-04-13T11:00:46.221Z,11.28
2023-04-13T11:01:41.390Z,11.28
2023-04-13T11:02:40.339Z,11.28
2023-04-13T11:03:44.978Z,11.24
2023-04-13T11:04:41.204Z,11.26
2023-04-13T11:05:40.090Z,11.26
2023-04-13T11:06:40.094Z,11.26
2023-04-13T11:07:40.440Z,11.24
2023-04-13T11:08:40.070Z,11.23
2023-04-13T11:09:40.063Z,11.24
2023-04-13T11:10:40.080Z,11.21
2023-04-13T11:11:40.085Z,11.21
2023-04-13T11:12:40.027Z,11.23
2023-04-13T11:13:40.009Z,11.23
2023-04-13T11:14:40.032Z,11.21
2023-04-13T11:15:39.992Z,11.21
2023-04-13T11:16:39.989Z,11.21
2023-04-13T11:17:40.010Z,11.23
2023-04-13T11:18:39.954Z,11.26
2023-04-13T11:19:39.950Z,11.26
2023-04-13T11:20:39.931Z,11.28
2023-04-13T11:21:39.937Z,11.27
2023-04-13T11:22:46.953Z,11.26
2023-04-13T11:23:40.909Z,11.26
2023-04-13T11:24:39.902Z,11.19
2023-04-13T11:25:39.875Z,11.12
2023-04-13T11:26:42.321Z,11.05
2023-04-13T11:27:39.854Z,10.95
2023-04-13T11:28:41.323Z,10.94
2023-04-13T11:29:39.839Z,10.87
2023-04-13T11:30:39.899Z,10.87
2023-04-13T11:31:39.936Z,10.84
2023-04-13T11:32:39.847Z,10.84
2023-04-13T11:33:40.462Z,10.84
2023-04-13T11:34:41.260Z,10.86
2023-04-13T11:35:39.772Z,10.81
2023-04-13T11:36:39.799Z,10.76
2023-04-13T11:37:39.764Z,10.73
2023-04-13T11:38:39.760Z,10.62
2023-04-13T11:39:39.734Z,10.49
2023-04-13T11:40:39.819Z,10.31
2023-04-13T11:41:40.007Z,10.14
2023-04-13T11:42:39.722Z,9.99
2023-04-13T11:43:39.681Z,9.91
2023-04-13T11:44:39.671Z,9.91
2023-04-13T11:45:39.679Z,9.93
2023-04-13T11:46:39.779Z,9.99
2023-04-13T11:47:39.844Z,10.09
2023-04-13T11:48:39.663Z,10.20
2023-04-13T11:49:39.635Z,10.38
2023-04-13T11:50:39.623Z,10.57
2023-04-13T11:51:39.591Z,10.72
2023-04-13T11:52:39.594Z,10.88
2023-04-13T11:53:40.392Z,11.13
2023-04-13T11:54:39.563Z,11.33
2023-04-13T11:55:52.149Z,11.46
2023-04-13T11:56:40.559Z,11.42
2023-04-13T11:57:39.538Z,11.35
2023-04-13T11:58:39.603Z,11.28
2023-04-13T11:59:39.517Z,11.27
2023-04-13T12:00:39.515Z,11.28
2023-04-13T12:01:48.523Z,11.24
2023-04-13T12:02:59.582Z,11.30
2023-04-13T12:03:57.001Z,11.28
2023-04-13T12:04:40.614Z,11.28
2023-04-13T12:05:39.688Z,11.33
2023-04-13T12:06:39.727Z,11.44
2023-04-13T12:07:39.941Z,11.59
2023-04-13T12:08:39.648Z,11.75
2023-04-13T12:09:55.229Z,11.98
2023-04-13T12:10:46.929Z,12.26
2023-04-13T12:11:42.835Z,12.51
2023-04-13T12:13:39.985Z,12.79
2023-04-13T12:14:57.355Z,12.85
2023-04-13T12:15:47.468Z,12.84
2023-04-13T12:17:43.962Z,12.73
2023-04-13T12:18:40.821Z,12.59
2023-04-13T12:19:40.782Z,12.54
2023-04-13T12:20:40.311Z,12.44
2023-04-13T12:21:40.178Z,12.36
2023-04-13T12:22:51.380Z,12.30
2023-04-13T12:23:40.427Z,12.30
2023-04-13T12:24:39.496Z,12.26
2023-04-13T12:25:39.538Z,12.22
2023-04-13T12:27:39.225Z,12.12
2023-04-13T12:28:39.210Z,12.04
2023-04-13T12:29:39.244Z,11.97
2023-04-13T12:30:39.181Z,11.94
2023-04-13T12:31:40.972Z,11.85
2023-04-13T12:32:39.183Z,11.82
2023-04-13T12:33:39.174Z,11.78
2023-04-13T12:34:39.152Z,11.75
2023-04-13T12:35:39.130Z,11.72
2023-04-13T12:36:39.417Z,11.66
2023-04-13T12:37:39.251Z,11.63
2023-04-13T12:38:39.112Z,11.63
2023-04-13T12:39:39.183Z,11.62
2023-04-13T12:40:39.317Z,11.63
2023-04-13T12:41:39.079Z,11.64
2023-04-13T12:42:39.120Z,11.69
2023-04-13T12:43:39.088Z,11.75
2023-04-13T12:44:39.073Z,11.84
2023-04-13T12:45:39.022Z,11.97
2023-04-13T12:46:39.321Z,12.16
2023-04-13T12:47:39.086Z,12.40
2023-04-13T12:48:39.033Z,13.55
2023-04-13T12:49:38.982Z,13.69
2023-04-13T12:50:38.994Z,14.01
2023-04-13T12:51:39.248Z,14.26
2023-04-13T12:52:38.946Z,14.38
2023-04-13T12:53:38.946Z,14.35
2023-04-13T12:54:38.922Z,14.19
2023-04-13T12:55:38.927Z,14.01
2023-04-13T12:56:39.218Z,13.90
2023-04-13T12:57:38.902Z,13.80
2023-04-13T12:58:38.889Z,13.69
2023-04-13T12:59:38.887Z,13.63
2023-04-13T13:00:38.877Z,13.69
2023-04-13T13:01:38.914Z,13.80
2023-04-13T13:02:39.104Z,14.45
2023-04-13T13:03:39.279Z,14.67
2023-04-13T13:04:38.880Z,14.86
2023-04-13T13:05:38.816Z,15.05
2023-04-13T13:06:38.811Z,15.91
2023-04-13T13:07:38.812Z,16.75
2023-04-13T13:08:40.407Z,17.43
2023-04-13T13:09:38.774Z,17.45
2023-04-13T13:10:38.762Z,17.33
2023-04-13T13:11:38.753Z,17.53
2023-04-13T13:12:38.740Z,18.13